sensor_id;sensor_type;location;lat;lon;timestamp;pressure;altitude;pressure_sealevel;temperature;humidity
25084;BME280;13075;55.682;37.564;2022-11-18T00:01:07;98868.34;;;-4.97;100.00
25084;BME280;13075;55.682;37.564;2022-11-18T00:03:33;98851.66;;;-4.95;100.00
25084;BME280;13075;55.682;37.564;2022-11-18T00:05:59;98851.03;;;-4.87;100.00
25084;BME280;13075;55.682;37.564;2022-11-18T00:08:25;98851.41;;;-4.81;100.00
25084;BME280;13075;55.682;37.564;2022-11-18T00:10:51;98854.72;;;-4.90;100.00
25084;BME280;13075;55.682;37.564;2022-11-18T00:13:17;98856.16;;;-5.08;100.00
25084;BME280;13075;55.682;37.564;2022-11-18T00:16:07;98857.59;;;-4.93;100.00
25084;BME280;13075;55.682;37.564;2022-11-18T00:18:33;98849.50;;;-4.90;100.00
25084;BME280;13075;55.682;37.564;2022-11-18T00:21:10;98850.34;;;-4.89;100.00
25084;BME280;13075;55.682;37.564;2022-11-18T00:23:36;98843.94;;;-4.96;100.00
25084;BME280;13075;55.682;37.564;2022-11-18T00:26:06;98836.34;;;-4.88;100.00
25084;BME280;13075;55.682;37.564;2022-11-18T00:28:32;98839.22;;;-5.03;100.00
25084;BME280;13075;55.682;37.564;2022-11-18T00:31:10;98826.31;;;-4.93;100.00
25084;BME280;13075;55.682;37.564;2022-11-18T00:33:36;98835.06;;;-4.94;100.00
25084;BME280;13075;55.682;37.564;2022-11-18T00:36:03;98831.28;;;-5.01;100.00
25084;BME280;13075;55.682;37.564;2022-11-18T00:38:29;98823.78;;;-4.94;100.00
25084;BME280;13075;55.682;37.564;2022-11-18T00:41:06;98830.78;;;-4.95;100.00
25084;BME280;13075;55.682;37.564;2022-11-18T00:43:32;98830.91;;;-5.19;100.00
25084;BME280;13075;55.682;37.564;2022-11-18T00:45:58;98830.81;;;-5.17;100.00
25084;BME280;13075;55.682;37.564;2022-11-18T00:48:24;98829.38;;;-5.21;100.00
25084;BME280;13075;55.682;37.564;2022-11-18T00:50:52;98815.28;;;-5.08;100.00
25084;BME280;13075;55.682;37.564;2022-11-18T00:53:19;98827.59;;;-5.10;100.00
25084;BME280;13075;55.682;37.564;2022-11-18T00:55:45;98814.69;;;-5.22;100.00
25084;BME280;13075;55.682;37.564;2022-11-18T00:58:11;98817.31;;;-5.11;100.00
25084;BME280;13075;55.682;37.564;2022-11-18T01:03:14;98821.09;;;-4.93;100.00
25084;BME280;13075;55.682;37.564;2022-11-18T01:05:40;98815.59;;;-4.90;100.00
25084;BME280;13075;55.682;37.564;2022-11-18T01:08:07;98810.16;;;-4.98;100.00
25084;BME280;13075;55.682;37.564;2022-11-18T01:10:33;98805.06;;;-4.99;100.00
25084;BME280;13075;55.682;37.564;2022-11-18T01:12:59;98815.97;;;-5.06;100.00
25084;BME280;13075;55.682;37.564;2022-11-18T01:15:51;98796.03;;;-4.95;100.00
25084;BME280;13075;55.682;37.564;2022-11-18T01:18:20;98808.84;;;-4.92;100.00
25084;BME280;13075;55.682;37.564;2022-11-18T01:20:46;98796.41;;;-4.89;100.00
25084;BME280;13075;55.682;37.564;2022-11-18T01:23:13;98805.63;;;-4.85;100.00
25084;BME280;13075;55.682;37.564;2022-11-18T01:25:41;98801.41;;;-4.97;100.00
25084;BME280;13075;55.682;37.564;2022-11-18T01:28:07;98795.34;;;-4.86;100.00
25084;BME280;13075;55.682;37.564;2022-11-18T01:30:34;98803.31;;;-4.99;100.00
25084;BME280;13075;55.682;37.564;2022-11-18T01:33:00;98793.94;;;-5.01;100.00
25084;BME280;13075;55.682;37.564;2022-11-18T01:35:26;98794.13;;;-4.82;100.00
25084;BME280;13075;55.682;37.564;2022-11-18T01:37:52;98801.72;;;-4.79;100.00
25084;BME280;13075;55.682;37.564;2022-11-18T01:40:18;98793.31;;;-4.83;100.00
25084;BME280;13075;55.682;37.564;2022-11-18T01:42:43;98798.53;;;-4.83;100.00
25084;BME280;13075;55.682;37.564;2022-11-18T01:45:34;98794.28;;;-4.95;100.00
25084;BME280;13075;55.682;37.564;2022-11-18T01:50:35;98792.03;;;-4.88;100.00
25084;BME280;13075;55.682;37.564;2022-11-18T01:53:08;98788.72;;;-4.90;100.00
25084;BME280;13075;55.682;37.564;2022-11-18T01:55:37;98788.28;;;-4.75;100.00
25084;BME280;13075;55.682;37.564;2022-11-18T01:58:10;98784.47;;;-4.60;100.00
25084;BME280;13075;55.682;37.564;2022-11-18T02:00:37;98791.56;;;-4.62;100.00
25084;BME280;13075;55.682;37.564;2022-11-18T02:03:03;98796.63;;;-4.81;100.00
25084;BME280;13075;55.682;37.564;2022-11-18T02:05:29;98792.13;;;-4.90;100.00
25084;BME280;13075;55.682;37.564;2022-11-18T02:07:56;98799.34;;;-4.82;100.00
25084;BME280;13075;55.682;37.564;2022-11-18T02:10:23;98793.19;;;-4.81;100.00
25084;BME280;13075;55.682;37.564;2022-11-18T02:12:50;98789.06;;;-4.95;100.00
25084;BME280;13075;55.682;37.564;2022-11-18T02:20:54;98789.75;;;-4.82;100.00
25084;BME280;13075;55.682;37.564;2022-11-18T02:31:33;98768.94;;;-5.04;100.00
25084;BME280;13075;55.682;37.564;2022-11-18T02:34:17;98780.66;;;-4.98;100.00
25084;BME280;13075;55.682;37.564;2022-11-18T02:37:05;98777.13;;;-5.09;100.00
25084;BME280;13075;55.682;37.564;2022-11-18T02:39:38;98771.19;;;-5.11;100.00
25084;BME280;13075;55.682;37.564;2022-11-18T02:42:10;98778.38;;;-4.92;100.00
25084;BME280;13075;55.682;37.564;2022-11-18T02:44:41;98778.13;;;-4.78;100.00
25084;BME280;13075;55.682;37.564;2022-11-18T02:47:10;98768.84;;;-4.71;100.00
25084;BME280;13075;55.682;37.564;2022-11-18T02:49:41;98767.50;;;-4.97;100.00
25084;BME280;13075;55.682;37.564;2022-11-18T02:52:09;98776.16;;;-4.96;100.00
25084;BME280;13075;55.682;37.564;2022-11-18T02:54:38;98771.25;;;-4.90;100.00
25084;BME280;13075;55.682;37.564;2022-11-18T02:57:06;98777.16;;;-4.77;100.00
25084;BME280;13075;55.682;37.564;2022-11-18T02:59:33;98776.25;;;-4.87;100.00
25084;BME280;13075;55.682;37.564;2022-11-18T03:01:58;98763.91;;;-4.85;100.00
25084;BME280;13075;55.682;37.564;2022-11-18T03:04:25;98765.94;;;-4.88;100.00
25084;BME280;13075;55.682;37.564;2022-11-18T03:07:17;98768.19;;;-4.84;100.00
25084;BME280;13075;55.682;37.564;2022-11-18T03:09:47;98771.19;;;-4.99;100.00
25084;BME280;13075;55.682;37.564;2022-11-18T03:15:29;98754.06;;;-4.81;100.00
25084;BME280;13075;55.682;37.564;2022-11-18T03:21:05;98753.16;;;-4.91;100.00
25084;BME280;13075;55.682;37.564;2022-11-18T03:26:19;98755.16;;;-4.95;100.00
25084;BME280;13075;55.682;37.564;2022-11-18T03:31:55;98758.59;;;-4.94;100.00
25084;BME280;13075;55.682;37.564;2022-11-18T03:34:35;98754.47;;;-4.97;100.00
25084;BME280;13075;55.682;37.564;2022-11-18T03:37:05;98752.06;;;-4.78;100.00
25084;BME280;13075;55.682;37.564;2022-11-18T03:39:35;98755.13;;;-4.84;100.00
25084;BME280;13075;55.682;37.564;2022-11-18T03:42:24;98746.25;;;-4.92;100.00
25084;BME280;13075;55.682;37.564;2022-11-18T03:45:00;98751.69;;;-4.84;100.00
25084;BME280;13075;55.682;37.564;2022-11-18T03:47:32;98749.44;;;-4.78;100.00
25084;BME280;13075;55.682;37.564;2022-11-18T03:50:07;98748.47;;;-4.77;100.00
25084;BME280;13075;55.682;37.564;2022-11-18T03:52:37;98745.38;;;-4.71;100.00
25084;BME280;13075;55.682;37.564;2022-11-18T03:55:49;98745.97;;;-4.67;100.00
25084;BME280;13075;55.682;37.564;2022-11-18T03:58:04;98735.34;;;-4.86;100.00
25084;BME280;13075;55.682;37.564;2022-11-18T04:00:37;98748.88;;;-4.92;100.00
25084;BME280;13075;55.682;37.564;2022-11-18T04:03:05;98744.69;;;-4.84;100.00
25084;BME280;13075;55.682;37.564;2022-11-18T04:05:37;98741.34;;;-4.75;100.00
25084;BME280;13075;55.682;37.564;2022-11-18T04:08:07;98745.81;;;-4.66;100.00
25084;BME280;13075;55.682;37.564;2022-11-18T04:10:41;98746.44;;;-4.73;100.00
25084;BME280;13075;55.682;37.564;2022-11-18T04:13:23;98739.31;;;-4.71;100.00
25084;BME280;13075;55.682;37.564;2022-11-18T04:15:50;98736.28;;;-4.87;100.00
25084;BME280;13075;55.682;37.564;2022-11-18T04:18:16;98738.91;;;-4.87;100.00
25084;BME280;13075;55.682;37.564;2022-11-18T04:20:41;98736.28;;;-4.87;100.00
25084;BME280;13075;55.682;37.564;2022-11-18T04:23:07;98738.19;;;-4.78;100.00
25084;BME280;13075;55.682;37.564;2022-11-18T04:25:33;98741.84;;;-4.81;100.00
25084;BME280;13075;55.682;37.564;2022-11-18T04:27:59;98746.38;;;-4.83;100.00
25084;BME280;13075;55.682;37.564;2022-11-18T04:30:25;98739.88;;;-4.88;100.00
25084;BME280;13075;55.682;37.564;2022-11-18T04:32:51;98746.78;;;-4.67;100.00
25084;BME280;13075;55.682;37.564;2022-11-18T04:35:16;98734.41;;;-4.85;100.00
25084;BME280;13075;55.682;37.564;2022-11-18T04:37:42;98739.13;;;-4.79;100.00
25084;BME280;13075;55.682;37.564;2022-11-18T04:40:08;98737.69;;;-4.72;100.00
25084;BME280;13075;55.682;37.564;2022-11-18T04:42:34;98736.84;;;-4.73;100.00
25084;BME280;13075;55.682;37.564;2022-11-18T04:45:00;98729.50;;;-4.79;100.00
25084;BME280;13075;55.682;37.564;2022-11-18T04:47:26;98728.56;;;-4.78;100.00
25084;BME280;13075;55.682;37.564;2022-11-18T04:49:51;98723.44;;;-4.68;100.00
25084;BME280;13075;55.682;37.564;2022-11-18T04:52:17;98727.44;;;-4.64;100.00
25084;BME280;13075;55.682;37.564;2022-11-18T04:54:43;98735.81;;;-4.81;100.00
25084;BME280;13075;55.682;37.564;2022-11-18T04:57:09;98732.19;;;-4.69;100.00
25084;BME280;13075;55.682;37.564;2022-11-18T04:59:34;98728.22;;;-4.84;100.00
25084;BME280;13075;55.682;37.564;2022-11-18T05:02:00;98734.66;;;-4.88;100.00
25084;BME280;13075;55.682;37.564;2022-11-18T05:04:28;98740.09;;;-4.80;100.00
25084;BME280;13075;55.682;37.564;2022-11-18T05:06:55;98738.91;;;-4.87;100.00
25084;BME280;13075;55.682;37.564;2022-11-18T05:09:21;98733.78;;;-4.78;100.00
25084;BME280;13075;55.682;37.564;2022-11-18T05:11:47;98737.75;;;-4.63;100.00
25084;BME280;13075;55.682;37.564;2022-11-18T05:14:31;98736.22;;;-4.65;100.00
25084;BME280;13075;55.682;37.564;2022-11-18T05:16:59;98746.84;;;-4.78;100.00
25084;BME280;13075;55.682;37.564;2022-11-18T05:19:25;98729.03;;;-4.73;100.00
25084;BME280;13075;55.682;37.564;2022-11-18T05:21:51;98734.19;;;-4.62;100.00
25084;BME280;13075;55.682;37.564;2022-11-18T05:24:17;98725.16;;;-4.58;100.00
25084;BME280;13075;55.682;37.564;2022-11-18T05:26:43;98736.44;;;-4.57;100.00
25084;BME280;13075;55.682;37.564;2022-11-18T05:29:09;98740.00;;;-4.58;100.00
25084;BME280;13075;55.682;37.564;2022-11-18T05:31:34;98735.25;;;-4.64;100.00
25084;BME280;13075;55.682;37.564;2022-11-18T05:34:00;98739.28;;;-4.60;100.00
25084;BME280;13075;55.682;37.564;2022-11-18T05:36:26;98733.09;;;-4.59;100.00
25084;BME280;13075;55.682;37.564;2022-11-18T05:38:51;98741.59;;;-4.46;100.00
25084;BME280;13075;55.682;37.564;2022-11-18T05:41:18;98741.78;;;-4.38;100.00
25084;BME280;13075;55.682;37.564;2022-11-18T05:44:03;98746.56;;;-4.43;100.00
25084;BME280;13075;55.682;37.564;2022-11-18T05:49:13;98747.88;;;-4.49;100.00
25084;BME280;13075;55.682;37.564;2022-11-18T05:51:38;98746.59;;;-4.54;100.00
25084;BME280;13075;55.682;37.564;2022-11-18T05:54:06;98746.94;;;-4.48;100.00
25084;BME280;13075;55.682;37.564;2022-11-18T05:56:37;98747.69;;;-4.36;100.00
25084;BME280;13075;55.682;37.564;2022-11-18T05:59:04;98747.84;;;-4.37;100.00
25084;BME280;13075;55.682;37.564;2022-11-18T06:01:54;98749.56;;;-4.48;100.00
25084;BME280;13075;55.682;37.564;2022-11-18T06:06:52;98740.16;;;-4.39;100.00
25084;BME280;13075;55.682;37.564;2022-11-18T06:09:21;98741.69;;;-4.16;100.00
25084;BME280;13075;55.682;37.564;2022-11-18T06:11:53;98738.44;;;-4.29;100.00
25084;BME280;13075;55.682;37.564;2022-11-18T06:14:35;98743.03;;;-4.21;100.00
25084;BME280;13075;55.682;37.564;2022-11-18T06:17:07;98738.44;;;-4.29;100.00
25084;BME280;13075;55.682;37.564;2022-11-18T06:19:34;98735.19;;;-4.42;100.00
25084;BME280;13075;55.682;37.564;2022-11-18T06:22:00;98742.16;;;-4.43;100.00
25084;BME280;13075;55.682;37.564;2022-11-18T06:24:26;98736.13;;;-4.43;100.00
25084;BME280;13075;55.682;37.564;2022-11-18T06:26:52;98743.63;;;-4.50;100.00
25084;BME280;13075;55.682;37.564;2022-11-18T06:29:19;98745.22;;;-4.37;100.00
25084;BME280;13075;55.682;37.564;2022-11-18T06:31:45;98742.69;;;-4.28;100.00
25084;BME280;13075;55.682;37.564;2022-11-18T06:34:10;98737.84;;;-4.32;100.00
25084;BME280;13075;55.682;37.564;2022-11-18T06:36:36;98741.34;;;-4.43;100.00
25084;BME280;13075;55.682;37.564;2022-11-18T06:39:05;98745.88;;;-4.45;100.00
25084;BME280;13075;55.682;37.564;2022-11-18T06:41:32;98746.75;;;-4.56;100.00
25084;BME280;13075;55.682;37.564;2022-11-18T06:43:58;98745.00;;;-4.34;100.00
25084;BME280;13075;55.682;37.564;2022-11-18T06:46:24;98742.31;;;-4.23;100.00
25084;BME280;13075;55.682;37.564;2022-11-18T06:49:08;98743.66;;;-4.08;100.00
25084;BME280;13075;55.682;37.564;2022-11-18T06:51:34;98743.56;;;-4.18;100.00
25084;BME280;13075;55.682;37.564;2022-11-18T06:54:00;98740.97;;;-4.18;100.00
25084;BME280;13075;55.682;37.564;2022-11-18T06:56:25;98744.84;;;-4.12;100.00
25084;BME280;13075;55.682;37.564;2022-11-18T06:58:53;98736.53;;;-4.27;100.00
25084;BME280;13075;55.682;37.564;2022-11-18T07:01:21;98725.13;;;-4.26;100.00
25084;BME280;13075;55.682;37.564;2022-11-18T07:03:48;98732.19;;;-4.37;100.00
25084;BME280;13075;55.682;37.564;2022-11-18T07:06:16;98736.81;;;-4.20;100.00
25084;BME280;13075;55.682;37.564;2022-11-18T07:08:42;98733.06;;;-4.27;100.00
25084;BME280;13075;55.682;37.564;2022-11-18T07:11:13;98733.47;;;-4.11;100.00
25084;BME280;13075;55.682;37.564;2022-11-18T07:13:40;98730.06;;;-4.02;100.00
25084;BME280;13075;55.682;37.564;2022-11-18T07:16:11;98741.28;;;-4.11;100.00
25084;BME280;13075;55.682;37.564;2022-11-18T07:18:38;98731.53;;;-4.09;100.00
25084;BME280;13075;55.682;37.564;2022-11-18T07:21:09;98740.31;;;-4.10;100.00
25084;BME280;13075;55.682;37.564;2022-11-18T07:23:35;98745.28;;;-4.07;100.00
25084;BME280;13075;55.682;37.564;2022-11-18T07:26:00;98743.47;;;-3.96;100.00
25084;BME280;13075;55.682;37.564;2022-11-18T07:28:27;98748.03;;;-3.88;100.00
25084;BME280;13075;55.682;37.564;2022-11-18T07:31:02;98741.88;;;-3.87;100.00
25084;BME280;13075;55.682;37.564;2022-11-18T07:33:29;98742.31;;;-3.82;100.00
25084;BME280;13075;55.682;37.564;2022-11-18T07:35:59;98742.03;;;-3.79;100.00
25084;BME280;13075;55.682;37.564;2022-11-18T07:38:25;98751.44;;;-3.67;100.00
25084;BME280;13075;55.682;37.564;2022-11-18T07:40:51;98739.03;;;-3.74;100.00
25084;BME280;13075;55.682;37.564;2022-11-18T07:43:16;98747.00;;;-3.76;100.00
25084;BME280;13075;55.682;37.564;2022-11-18T07:45:42;98738.94;;;-3.63;100.00
25084;BME280;13075;55.682;37.564;2022-11-18T07:48:08;98757.47;;;-3.66;100.00
25084;BME280;13075;55.682;37.564;2022-11-18T07:50:33;98749.38;;;-3.94;100.00
25084;BME280;13075;55.682;37.564;2022-11-18T07:52:59;98747.44;;;-3.71;100.00
25084;BME280;13075;55.682;37.564;2022-11-18T07:55:24;98740.56;;;-3.72;100.00
25084;BME280;13075;55.682;37.564;2022-11-18T07:57:50;98749.13;;;-3.60;100.00
25084;BME280;13075;55.682;37.564;2022-11-18T08:00:16;98749.53;;;-3.65;100.00
25084;BME280;13075;55.682;37.564;2022-11-18T08:02:41;98755.66;;;-3.75;100.00
25084;BME280;13075;55.682;37.564;2022-11-18T08:05:08;98758.69;;;-3.50;100.00
25084;BME280;13075;55.682;37.564;2022-11-18T08:07:34;98746.66;;;-3.62;100.00
25084;BME280;13075;55.682;37.564;2022-11-18T08:10:00;98751.38;;;-3.77;100.00
25084;BME280;13075;55.682;37.564;2022-11-18T08:12:28;98747.38;;;-3.81;100.00
25084;BME280;13075;55.682;37.564;2022-11-18T08:14:55;98759.06;;;-3.85;100.00
25084;BME280;13075;55.682;37.564;2022-11-18T08:17:21;98757.22;;;-3.63;100.00
25084;BME280;13075;55.682;37.564;2022-11-18T08:19:46;98761.84;;;-3.77;100.00
25084;BME280;13075;55.682;37.564;2022-11-18T08:22:12;98757.00;;;-3.81;100.00
25084;BME280;13075;55.682;37.564;2022-11-18T08:24:37;98752.00;;;-3.63;100.00
25084;BME280;13075;55.682;37.564;2022-11-18T08:27:03;98748.84;;;-3.67;100.00
25084;BME280;13075;55.682;37.564;2022-11-18T08:29:29;98754.88;;;-3.66;100.00
25084;BME280;13075;55.682;37.564;2022-11-18T08:31:54;98759.06;;;-3.54;100.00
25084;BME280;13075;55.682;37.564;2022-11-18T08:34:20;98750.56;;;-3.47;100.00
25084;BME280;13075;55.682;37.564;2022-11-18T08:36:46;98765.63;;;-3.30;100.00
25084;BME280;13075;55.682;37.564;2022-11-18T08:39:11;98763.72;;;-3.58;100.00
25084;BME280;13075;55.682;37.564;2022-11-18T08:41:42;98749.75;;;-3.47;100.00
25084;BME280;13075;55.682;37.564;2022-11-18T08:44:11;98755.16;;;-3.39;100.00
25084;BME280;13075;55.682;37.564;2022-11-18T08:46:37;98752.50;;;-3.49;100.00
25084;BME280;13075;55.682;37.564;2022-11-18T08:49:03;98753.38;;;-3.39;100.00
25084;BME280;13075;55.682;37.564;2022-11-18T08:51:29;98747.91;;;-3.26;100.00
25084;BME280;13075;55.682;37.564;2022-11-18T08:53:55;98755.75;;;-3.26;100.00
25084;BME280;13075;55.682;37.564;2022-11-18T08:56:21;98754.06;;;-3.37;100.00
25084;BME280;13075;55.682;37.564;2022-11-18T08:58:48;98764.34;;;-3.45;100.00
25084;BME280;13075;55.682;37.564;2022-11-18T09:01:13;98760.72;;;-3.53;100.00
25084;BME280;13075;55.682;37.564;2022-11-18T09:03:40;98763.00;;;-3.39;100.00
25084;BME280;13075;55.682;37.564;2022-11-18T09:06:11;98754.34;;;-3.30;100.00
25084;BME280;13075;55.682;37.564;2022-11-18T09:08:37;98766.88;;;-3.34;100.00
25084;BME280;13075;55.682;37.564;2022-11-18T09:11:05;98776.91;;;-3.29;100.00
25084;BME280;13075;55.682;37.564;2022-11-18T09:13:31;98770.00;;;-3.40;100.00
25084;BME280;13075;55.682;37.564;2022-11-18T09:15:58;98773.00;;;-3.44;100.00
25084;BME280;13075;55.682;37.564;2022-11-18T09:18:23;98764.25;;;-3.34;100.00
25084;BME280;13075;55.682;37.564;2022-11-18T09:21:01;98771.69;;;-3.29;100.00
25084;BME280;13075;55.682;37.564;2022-11-18T09:23:26;98782.28;;;-3.31;100.00
25084;BME280;13075;55.682;37.564;2022-11-18T09:26:04;98773.41;;;-3.09;100.00
25084;BME280;13075;55.682;37.564;2022-11-18T09:28:30;98773.31;;;-3.38;100.00
25084;BME280;13075;55.682;37.564;2022-11-18T09:30:55;98775.69;;;-3.25;100.00
25084;BME280;13075;55.682;37.564;2022-11-18T09:33:23;98768.94;;;-3.28;100.00
25084;BME280;13075;55.682;37.564;2022-11-18T09:35:49;98764.47;;;-3.46;100.00
25084;BME280;13075;55.682;37.564;2022-11-18T09:38:14;98765.22;;;-3.25;100.00
25084;BME280;13075;55.682;37.564;2022-11-18T09:43:19;98753.88;;;-3.05;100.00
25084;BME280;13075;55.682;37.564;2022-11-18T09:45:55;98771.91;;;-3.02;100.00
25084;BME280;13075;55.682;37.564;2022-11-18T09:48:27;98770.38;;;-3.14;100.00
25084;BME280;13075;55.682;37.564;2022-11-18T09:51:12;98776.91;;;-2.89;100.00
25084;BME280;13075;55.682;37.564;2022-11-18T09:53:40;98774.16;;;-2.78;100.00
25084;BME280;13075;55.682;37.564;2022-11-18T09:56:15;98762.44;;;-2.93;100.00
25084;BME280;13075;55.682;37.564;2022-11-18T09:58:41;98776.88;;;-2.99;100.00
25084;BME280;13075;55.682;37.564;2022-11-18T10:01:15;98773.72;;;-2.93;100.00
25084;BME280;13075;55.682;37.564;2022-11-18T10:03:42;98765.13;;;-3.14;100.00
25084;BME280;13075;55.682;37.564;2022-11-18T10:19:27;98784.63;;;-2.88;100.00
25084;BME280;13075;55.682;37.564;2022-11-18T10:24:51;98780.31;;;-2.98;100.00
25084;BME280;13075;55.682;37.564;2022-11-18T10:27:18;98785.28;;;-2.95;100.00
25084;BME280;13075;55.682;37.564;2022-11-18T10:29:48;98787.06;;;-3.05;100.00
25084;BME280;13075;55.682;37.564;2022-11-18T10:32:18;98790.69;;;-2.87;100.00
25084;BME280;13075;55.682;37.564;2022-11-18T10:39:52;98793.72;;;-2.92;100.00
25084;BME280;13075;55.682;37.564;2022-11-18T10:42:42;98791.38;;;-2.85;100.00
25084;BME280;13075;55.682;37.564;2022-11-18T10:47:40;98797.75;;;-2.69;100.00
25084;BME280;13075;55.682;37.564;2022-11-18T10:50:33;98802.69;;;-2.66;100.00
25084;BME280;13075;55.682;37.564;2022-11-18T10:53:00;98805.03;;;-2.72;100.00
25084;BME280;13075;55.682;37.564;2022-11-18T10:55:27;98816.13;;;-2.99;100.00
25084;BME280;13075;55.682;37.564;2022-11-18T10:58:23;98807.31;;;-2.98;100.00
25084;BME280;13075;55.682;37.564;2022-11-18T11:00:50;98803.34;;;-2.92;100.00
25084;BME280;13075;55.682;37.564;2022-11-18T11:05:47;98820.41;;;-2.98;100.00
25084;BME280;13075;55.682;37.564;2022-11-18T11:08:22;98808.66;;;-3.03;100.00
25084;BME280;13075;55.682;37.564;2022-11-18T11:10:56;98818.72;;;-3.08;100.00
25084;BME280;13075;55.682;37.564;2022-11-18T11:13:25;98823.28;;;-3.01;100.00
25084;BME280;13075;55.682;37.564;2022-11-18T11:15:52;98826.81;;;-3.11;100.00
25084;BME280;13075;55.682;37.564;2022-11-18T11:18:25;98814.72;;;-3.12;100.00
25084;BME280;13075;55.682;37.564;2022-11-18T11:21:20;98826.13;;;-3.13;100.00
25084;BME280;13075;55.682;37.564;2022-11-18T11:23:50;98824.63;;;-3.06;100.00
25084;BME280;13075;55.682;37.564;2022-11-18T11:26:33;98831.69;;;-2.97;100.00
25084;BME280;13075;55.682;37.564;2022-11-18T11:29:15;98833.63;;;-2.99;100.00
25084;BME280;13075;55.682;37.564;2022-11-18T11:32:12;98844.72;;;-3.07;100.00
25084;BME280;13075;55.682;37.564;2022-11-18T11:52:03;98862.13;;;-3.27;100.00
25084;BME280;13075;55.682;37.564;2022-11-18T12:00:02;98866.41;;;-3.26;100.00
25084;BME280;13075;55.682;37.564;2022-11-18T12:05:21;98859.28;;;-3.44;100.00
25084;BME280;13075;55.682;37.564;2022-11-18T12:07:53;98867.59;;;-3.30;100.00
25084;BME280;13075;55.682;37.564;2022-11-18T12:16:27;98871.25;;;-3.21;100.00
25084;BME280;13075;55.682;37.564;2022-11-18T12:19:06;98883.38;;;-3.20;100.00
25084;BME280;13075;55.682;37.564;2022-11-18T12:24:41;98894.91;;;-3.23;100.00
25084;BME280;13075;55.682;37.564;2022-11-18T12:35:33;98902.88;;;-2.94;100.00
25084;BME280;13075;55.682;37.564;2022-11-18T12:38:02;98905.06;;;-2.99;100.00
25084;BME280;13075;55.682;37.564;2022-11-18T12:46:07;98912.22;;;-3.01;100.00
25084;BME280;13075;55.682;37.564;2022-11-18T12:48:38;98906.06;;;-2.90;100.00
25084;BME280;13075;55.682;37.564;2022-11-18T12:58:45;98921.72;;;-3.00;100.00
25084;BME280;13075;55.682;37.564;2022-11-18T13:01:12;98927.66;;;-2.98;100.00
25084;BME280;13075;55.682;37.564;2022-11-18T13:03:40;98924.34;;;-3.00;100.00
25084;BME280;13075;55.682;37.564;2022-11-18T13:06:23;98924.59;;;-3.03;100.00
25084;BME280;13075;55.682;37.564;2022-11-18T13:09:03;98924.34;;;-3.00;100.00
25084;BME280;13075;55.682;37.564;2022-11-18T13:11:44;98930.06;;;-2.85;100.00
25084;BME280;13075;55.682;37.564;2022-11-18T13:14:23;98921.91;;;-2.92;100.00
25084;BME280;13075;55.682;37.564;2022-11-18T13:22:55;98949.47;;;-2.88;100.00
25084;BME280;13075;55.682;37.564;2022-11-18T13:25:40;98960.88;;;-2.89;100.00
25084;BME280;13075;55.682;37.564;2022-11-18T13:30:59;98954.00;;;-2.90;100.00
25084;BME280;13075;55.682;37.564;2022-11-18T13:33:38;98961.59;;;-2.87;100.00
25084;BME280;13075;55.682;37.564;2022-11-18T13:36:24;98967.03;;;-2.99;100.00
25084;BME280;13075;55.682;37.564;2022-11-18T13:38:57;98968.25;;;-3.03;100.00
25084;BME280;13075;55.682;37.564;2022-11-18T13:41:24;98964.78;;;-3.04;100.00
25084;BME280;13075;55.682;37.564;2022-11-18T13:47:08;98972.72;;;-2.94;100.00
25084;BME280;13075;55.682;37.564;2022-11-18T13:49:46;98967.94;;;-2.89;100.00
25084;BME280;13075;55.682;37.564;2022-11-18T13:55:05;98969.34;;;-2.76;100.00
25084;BME280;13075;55.682;37.564;2022-11-18T13:57:32;98961.50;;;-2.76;100.00
25084;BME280;13075;55.682;37.564;2022-11-18T14:00:03;98955.28;;;-2.84;100.00
25084;BME280;13075;55.682;37.564;2022-11-18T14:02:30;98968.19;;;-2.92;100.00
25084;BME280;13075;55.682;37.564;2022-11-18T14:04:57;98967.09;;;-2.90;100.00
25084;BME280;13075;55.682;37.564;2022-11-18T14:07:32;98969.16;;;-2.84;100.00
25084;BME280;13075;55.682;37.564;2022-11-18T14:12:28;98967.50;;;-2.94;100.00
25084;BME280;13075;55.682;37.564;2022-11-18T14:15:31;98970.66;;;-2.91;100.00
25084;BME280;13075;55.682;37.564;2022-11-18T14:17:59;98963.25;;;-2.86;100.00
25084;BME280;13075;55.682;37.564;2022-11-18T14:20:27;98974.28;;;-2.82;100.00
25084;BME280;13075;55.682;37.564;2022-11-18T14:22:56;98970.91;;;-2.94;100.00
25084;BME280;13075;55.682;37.564;2022-11-18T14:25:29;98972.00;;;-2.96;100.00
25084;BME280;13075;55.682;37.564;2022-11-18T14:28:08;98972.56;;;-2.93;100.00
25084;BME280;13075;55.682;37.564;2022-11-18T14:30:38;98973.53;;;-2.94;100.00
25084;BME280;13075;55.682;37.564;2022-11-18T14:33:12;98975.19;;;-2.93;100.00
25084;BME280;13075;55.682;37.564;2022-11-18T14:35:42;98980.69;;;-3.17;100.00
25084;BME280;13075;55.682;37.564;2022-11-18T14:38:17;98976.44;;;-3.18;100.00
25084;BME280;13075;55.682;37.564;2022-11-18T14:40:43;98978.72;;;-3.24;100.00
25084;BME280;13075;55.682;37.564;2022-11-18T14:43:11;98973.44;;;-3.13;100.00
25084;BME280;13075;55.682;37.564;2022-11-18T14:45:38;98972.44;;;-3.12;100.00
25084;BME280;13075;55.682;37.564;2022-11-18T14:48:04;98970.47;;;-3.20;100.00
25084;BME280;13075;55.682;37.564;2022-11-18T14:50:30;98969.28;;;-3.16;100.00
25084;BME280;13075;55.682;37.564;2022-11-18T14:52:55;98973.41;;;-3.34;100.00
25084;BME280;13075;55.682;37.564;2022-11-18T14:55:21;98976.59;;;-3.30;100.00
25084;BME280;13075;55.682;37.564;2022-11-18T14:57:47;98970.66;;;-3.32;100.00
25084;BME280;13075;55.682;37.564;2022-11-18T15:00:14;98965.97;;;-3.38;100.00
25084;BME280;13075;55.682;37.564;2022-11-18T15:02:40;98967.34;;;-3.34;100.00
25084;BME280;13075;55.682;37.564;2022-11-18T15:05:06;98966.47;;;-3.44;100.00
25084;BME280;13075;55.682;37.564;2022-11-18T15:07:32;98967.59;;;-3.37;100.00
25084;BME280;13075;55.682;37.564;2022-11-18T15:09:58;98964.09;;;-3.47;100.00
25084;BME280;13075;55.682;37.564;2022-11-18T15:12:23;98973.59;;;-3.46;100.00